createdAt,value
2018-06-28T00:00:56.883Z,17.41
2018-06-28T00:01:56.888Z,17.49
2018-06-28T00:02:56.888Z,17.45
2018-06-28T00:03:56.894Z,17.38
2018-06-28T00:04:56.901Z,17.36
2018-06-28T00:05:56.898Z,17.34
2018-06-28T00:06:56.900Z,17.36
2018-06-28T00:07:56.903Z,17.34
2018-06-28T00:08:56.988Z,17.31
2018-06-28T00:09:56.908Z,17.29
2018-06-28T00:10:56.910Z,17.26
2018-06-28T00:11:56.913Z,17.24
2018-06-28T00:12:56.929Z,17.22
2018-06-28T00:13:56.918Z,17.14
2018-06-28T00:14:56.924Z,17.20
2018-06-28T00:15:56.924Z,17.11
2018-06-28T00:16:56.925Z,17.22
2018-06-28T00:17:56.929Z,17.12
2018-06-28T00:18:56.932Z,17.14
2018-06-28T00:19:56.935Z,17.20
2018-06-28T00:20:56.937Z,17.16
2018-06-28T00:21:56.942Z,17.08
2018-06-28T00:22:56.942Z,17.12
2018-06-28T00:23:56.944Z,17.08
2018-06-28T00:24:56.944Z,17.09
2018-06-28T00:25:56.947Z,17.02
2018-06-28T00:26:56.953Z,17.04
2018-06-28T00:27:56.954Z,16.99
2018-06-28T00:28:56.955Z,17.04
2018-06-28T00:29:56.957Z,16.96
2018-06-28T00:30:56.961Z,16.99
2018-06-28T00:31:56.963Z,16.96
2018-06-28T00:32:56.968Z,16.89
2018-06-28T00:33:56.968Z,16.90
2018-06-28T00:34:56.968Z,16.90
2018-06-28T00:35:56.974Z,16.83
2018-06-28T00:36:56.973Z,16.84
2018-06-28T00:37:56.978Z,16.79
2018-06-28T00:38:56.980Z,16.81
2018-06-28T00:39:56.981Z,16.90
2018-06-28T00:40:56.984Z,16.96
2018-06-28T00:41:56.987Z,16.97
2018-06-28T00:42:57.027Z,16.94
2018-06-28T00:43:56.991Z,16.94
2018-06-28T00:44:56.990Z,16.81
2018-06-28T00:45:56.992Z,16.78
2018-06-28T00:46:56.989Z,16.78
2018-06-28T00:47:56.998Z,16.79
2018-06-28T00:48:57.000Z,16.71
2018-06-28T00:49:57.001Z,16.64
2018-06-28T00:50:57.006Z,16.58
2018-06-28T00:51:57.001Z,16.64
2018-06-28T00:52:57.006Z,16.54
2018-06-28T00:53:57.011Z,16.64
2018-06-28T00:54:57.013Z,16.61
2018-06-28T00:55:57.016Z,16.61
2018-06-28T00:56:57.015Z,16.58
2018-06-28T00:57:57.019Z,16.49
2018-06-28T00:58:57.024Z,16.49
2018-06-28T00:59:57.024Z,16.43
2018-06-28T01:00:57.028Z,16.49
2018-06-28T01:01:57.027Z,16.49
2018-06-28T01:02:57.031Z,16.41
2018-06-28T01:03:57.036Z,16.43
2018-06-28T01:04:57.029Z,16.49
2018-06-28T01:05:57.042Z,16.47
2018-06-28T01:06:57.038Z,16.41
2018-06-28T01:07:57.038Z,16.41
2018-06-28T01:08:57.040Z,16.38
2018-06-28T01:09:57.041Z,16.29
2018-06-28T01:10:57.046Z,16.32
2018-06-28T01:11:57.051Z,16.32
2018-06-28T01:12:57.048Z,16.33
2018-06-28T01:13:57.045Z,16.28
2018-06-28T01:14:57.052Z,16.33
2018-06-28T01:15:57.054Z,16.33
2018-06-28T01:16:57.057Z,16.26
2018-06-28T01:17:57.056Z,16.32
2018-06-28T01:18:57.059Z,16.29
2018-06-28T01:19:57.061Z,16.29
2018-06-28T01:20:57.059Z,16.31
2018-06-28T01:21:57.065Z,16.24
2018-06-28T01:22:57.072Z,16.23
2018-06-28T01:23:57.069Z,16.28
2018-06-28T01:24:57.072Z,16.15
2018-06-28T01:25:57.073Z,16.16
2018-06-28T01:26:57.073Z,16.16
2018-06-28T01:27:57.076Z,16.21
2018-06-28T01:28:57.077Z,16.24
2018-06-28T01:29:57.079Z,16.28
2018-06-28T01:30:57.080Z,16.29
2018-06-28T01:31:57.083Z,16.35
2018-06-28T01:32:57.083Z,16.17
2018-06-28T01:33:57.078Z,16.29
2018-06-28T01:34:57.085Z,16.33
2018-06-28T01:35:57.095Z,16.32
2018-06-28T01:36:57.091Z,16.31
2018-06-28T01:37:57.094Z,16.32
2018-06-28T01:38:57.095Z,16.31
2018-06-28T01:39:57.099Z,16.26
2018-06-28T01:40:57.097Z,16.24
2018-06-28T01:41:57.092Z,16.28
2018-06-28T01:42:57.101Z,16.20
2018-06-28T01:43:57.099Z,16.20
2018-06-28T01:44:57.105Z,16.23
2018-06-28T01:45:57.113Z,16.21
2018-06-28T01:46:57.103Z,16.28
2018-06-28T01:47:57.123Z,16.29
2018-06-28T01:48:57.111Z,16.29
2018-06-28T01:49:57.107Z,16.10
2018-06-28T01:50:57.114Z,16.20
2018-06-28T01:51:57.115Z,16.16
2018-06-28T01:52:57.161Z,16.13
2018-06-28T01:53:57.119Z,16.15
2018-06-28T01:54:57.118Z,16.15
2018-06-28T01:55:57.120Z,16.20
2018-06-28T01:56:57.130Z,16.13
2018-06-28T01:57:57.128Z,16.16
2018-06-28T01:58:57.130Z,16.10
2018-06-28T01:59:57.130Z,16.13
2018-06-28T02:00:57.133Z,16.10
2018-06-28T02:01:57.135Z,16.05
2018-06-28T02:02:57.142Z,16.09
2018-06-28T02:03:57.138Z,15.91
2018-06-28T02:04:57.139Z,15.91
2018-06-28T02:05:57.141Z,15.91
2018-06-28T02:06:57.142Z,15.83
2018-06-28T02:07:57.145Z,15.82
2018-06-28T02:08:57.144Z,15.86
2018-06-28T02:09:57.151Z,15.86
2018-06-28T02:10:57.150Z,15.83
2018-06-28T02:11:57.147Z,15.84
2018-06-28T02:12:57.151Z,15.82
2018-06-28T02:13:57.146Z,15.80
2018-06-28T02:14:57.151Z,15.76
2018-06-28T02:15:57.156Z,15.72
2018-06-28T02:16:57.158Z,15.73
2018-06-28T02:17:57.158Z,15.75
2018-06-28T02:18:57.159Z,15.72
2018-06-28T02:19:57.174Z,15.67
2018-06-28T02:20:57.164Z,15.68
2018-06-28T02:21:57.165Z,15.73
2018-06-28T02:22:57.160Z,15.75
2018-06-28T02:23:57.167Z,15.68
2018-06-28T02:24:57.163Z,15.70
2018-06-28T02:25:57.170Z,15.55
2018-06-28T02:26:57.173Z,15.62
2018-06-28T02:27:57.174Z,15.59
2018-06-28T02:28:57.175Z,15.59
2018-06-28T02:29:57.178Z,15.59
2018-06-28T02:30:57.177Z,15.62
2018-06-28T02:31:57.179Z,15.58
2018-06-28T02:32:57.179Z,15.57
2018-06-28T02:33:57.182Z,15.65
2018-06-28T02:34:57.191Z,15.58
2018-06-28T02:35:57.181Z,15.43
2018-06-28T02:36:57.187Z,15.47
2018-06-28T02:37:57.188Z,15.65
2018-06-28T02:38:57.187Z,15.47
2018-06-28T02:39:57.190Z,15.47
2018-06-28T02:40:57.191Z,15.54
2018-06-28T02:41:57.191Z,15.52
2018-06-28T02:42:57.201Z,15.47
2018-06-28T02:43:57.194Z,15.44
2018-06-28T02:44:57.197Z,15.57
2018-06-28T02:45:57.197Z,15.42
2018-06-28T02:46:57.196Z,15.54
2018-06-28T02:47:57.198Z,15.44
2018-06-28T02:48:57.201Z,15.46
2018-06-28T02:49:57.201Z,15.44
2018-06-28T02:50:57.201Z,15.40
2018-06-28T02:51:57.200Z,15.36
2018-06-28T02:52:57.204Z,15.42
2018-06-28T02:53:57.209Z,15.35
2018-06-28T02:54:57.207Z,15.29
2018-06-28T02:55:57.208Z,15.36
2018-06-28T02:56:57.208Z,15.29
2018-06-28T02:57:57.211Z,15.24
2018-06-28T02:58:57.211Z,15.31
2018-06-28T02:59:57.213Z,15.33
2018-06-28T03:00:57.207Z,15.27
2018-06-28T03:01:57.213Z,15.31
2018-06-28T03:02:57.217Z,15.33
2018-06-28T03:03:57.218Z,15.27
2018-06-28T03:04:57.216Z,15.17
2018-06-28T03:05:57.219Z,15.21
2018-06-28T03:06:57.230Z,15.22
2018-06-28T03:07:57.222Z,15.25
2018-06-28T03:08:57.220Z,15.33
2018-06-28T03:09:57.224Z,15.35
2018-06-28T03:10:57.223Z,15.36
2018-06-28T03:11:57.226Z,15.29
2018-06-28T03:12:57.225Z,15.22
2018-06-28T03:13:57.223Z,15.28
2018-06-28T03:14:57.236Z,15.21
2018-06-28T03:15:57.229Z,15.27
2018-06-28T03:16:57.243Z,15.17
2018-06-28T03:17:57.230Z,15.18
2018-06-28T03:18:57.231Z,15.24
2018-06-28T03:19:57.235Z,15.24
2018-06-28T03:20:57.232Z,15.19
2018-06-28T03:21:57.236Z,15.19
2018-06-28T03:22:57.235Z,15.24
2018-06-28T03:23:57.237Z,15.21
2018-06-28T03:24:57.237Z,15.22
2018-06-28T03:25:57.237Z,15.27
2018-06-28T03:26:57.238Z,15.21
2018-06-28T03:27:57.242Z,15.27
2018-06-28T03:28:57.241Z,15.27
2018-06-28T03:29:57.242Z,15.22
2018-06-28T03:30:57.257Z,15.29
2018-06-28T03:31:57.248Z,15.21
2018-06-28T03:32:57.245Z,15.35
2018-06-28T03:33:57.254Z,15.24
2018-06-28T03:34:57.241Z,15.21
2018-06-28T03:35:57.252Z,15.24
2018-06-28T03:36:57.242Z,15.28
2018-06-28T03:37:57.408Z,15.27
2018-06-28T03:38:57.247Z,15.33
2018-06-28T03:39:57.251Z,15.25
2018-06-28T03:40:57.255Z,15.27
2018-06-28T03:41:57.255Z,15.31
2018-06-28T03:42:57.256Z,15.27
2018-06-28T03:43:57.256Z,15.36
2018-06-28T03:44:57.259Z,15.33
2018-06-28T03:45:57.279Z,15.31
2018-06-28T03:46:57.259Z,15.29
2018-06-28T03:47:57.262Z,15.39
2018-06-28T03:48:57.263Z,15.33
2018-06-28T03:49:57.264Z,15.31
2018-06-28T03:50:57.264Z,15.29
2018-06-28T03:51:57.267Z,15.35
2018-06-28T03:52:57.264Z,15.35
2018-06-28T03:53:57.266Z,15.35
2018-06-28T03:54:57.265Z,15.36
2018-06-28T03:55:57.267Z,15.35
2018-06-28T03:56:57.262Z,15.43
2018-06-28T03:57:57.272Z,15.44
2018-06-28T03:58:57.270Z,15.47
2018-06-28T03:59:57.273Z,15.44
2018-06-28T04:00:57.272Z,15.49
2018-06-28T04:01:57.275Z,15.46
2018-06-28T04:02:57.278Z,15.54
2018-06-28T04:03:57.279Z,15.58
2018-06-28T04:04:57.278Z,15.57
2018-06-28T04:05:57.281Z,15.54
2018-06-28T04:06:57.280Z,15.43
2018-06-28T04:07:57.284Z,15.64
2018-06-28T04:08:57.286Z,15.61
2018-06-28T04:09:57.285Z,15.61
2018-06-28T04:10:57.284Z,15.65
2018-06-28T04:11:57.287Z,15.64
2018-06-28T04:12:57.286Z,15.64
2018-06-28T04:13:57.289Z,15.70
2018-06-28T04:14:57.289Z,15.68
2018-06-28T04:15:57.289Z,15.73
2018-06-28T04:16:57.291Z,15.70
2018-06-28T04:17:57.288Z,15.75
2018-06-28T04:18:57.294Z,15.64
2018-06-28T04:19:57.295Z,15.73
2018-06-28T04:20:57.294Z,15.76
2018-06-28T04:21:57.297Z,15.79
2018-06-28T04:22:57.299Z,15.80
2018-06-28T04:23:57.294Z,15.82
2018-06-28T04:24:57.301Z,15.75
2018-06-28T04:25:57.301Z,15.76
2018-06-28T04:26:57.299Z,15.76
2018-06-28T04:27:57.300Z,15.72
2018-06-28T04:28:57.308Z,15.79
2018-06-28T04:29:57.312Z,15.80
2018-06-28T04:30:57.312Z,15.80
2018-06-28T04:31:57.307Z,15.83
2018-06-28T04:32:57.315Z,15.82
2018-06-28T04:33:57.308Z,15.88
2018-06-28T04:34:57.315Z,15.95
2018-06-28T04:35:57.317Z,15.91
2018-06-28T04:36:57.322Z,15.90
2018-06-28T04:37:57.319Z,15.91
2018-06-28T04:38:57.322Z,15.86
2018-06-28T04:39:57.325Z,15.90
2018-06-28T04:40:57.350Z,16.01
2018-06-28T04:41:57.328Z,16.15
2018-06-28T04:42:57.331Z,16.08
2018-06-28T04:43:57.330Z,16.15
2018-06-28T04:44:57.330Z,16.09
2018-06-28T04:45:57.330Z,16.21
2018-06-28T04:46:57.342Z,16.10
2018-06-28T04:47:57.339Z,16.16
2018-06-28T04:48:57.334Z,16.17
2018-06-28T04:49:57.483Z,16.20
2018-06-28T04:50:57.340Z,16.15
2018-06-28T04:51:57.355Z,16.24
2018-06-28T04:52:57.345Z,16.31
2018-06-28T04:53:57.346Z,16.32
2018-06-28T04:54:57.348Z,16.31
2018-06-28T04:55:57.351Z,16.33
2018-06-28T04:56:57.351Z,16.32
2018-06-28T04:57:57.353Z,16.28
2018-06-28T04:58:57.357Z,16.32
2018-06-28T04:59:57.355Z,16.39
2018-06-28T05:00:57.360Z,16.39
2018-06-28T05:01:57.362Z,16.35
2018-06-28T05:02:57.366Z,16.39
2018-06-28T05:03:57.373Z,16.46
2018-06-28T05:04:57.365Z,16.46
2018-06-28T05:05:57.367Z,16.51
2018-06-28T05:06:57.431Z,16.54
2018-06-28T05:07:57.371Z,16.51
2018-06-28T05:08:57.385Z,16.58
2018-06-28T05:09:57.381Z,16.71
2018-06-28T05:10:57.380Z,16.74
2018-06-28T05:11:57.383Z,16.78
2018-06-28T05:12:57.382Z,16.79
2018-06-28T05:13:57.384Z,16.90
2018-06-28T05:14:57.395Z,16.89
2018-06-28T05:15:57.389Z,16.96
2018-06-28T05:16:57.390Z,17.06
2018-06-28T05:17:57.391Z,17.16
2018-06-28T05:18:57.394Z,17.23
2018-06-28T05:19:57.398Z,17.29
2018-06-28T05:20:57.426Z,17.34
2018-06-28T05:21:57.402Z,17.33
2018-06-28T05:22:57.404Z,17.42
2018-06-28T05:23:57.408Z,17.44
2018-06-28T05:24:57.408Z,17.52
2018-06-28T05:25:57.413Z,17.51
2018-06-28T05:26:57.416Z,17.70
2018-06-28T05:27:57.418Z,17.71
2018-06-28T05:28:57.420Z,17.79
2018-06-28T05:29:57.422Z,17.82
2018-06-28T05:30:57.429Z,17.83
2018-06-28T05:31:57.432Z,17.97
2018-06-28T05:32:57.429Z,17.87
2018-06-28T05:33:57.427Z,17.87
2018-06-28T05:34:57.508Z,17.94
2018-06-28T05:35:57.443Z,17.80
2018-06-28T05:36:57.442Z,17.97
2018-06-28T05:37:57.449Z,18.05
2018-06-28T05:38:57.457Z,18.03
2018-06-28T05:39:57.455Z,17.97
2018-06-28T05:40:57.455Z,18.08
2018-06-28T05:41:57.453Z,18.13
2018-06-28T05:42:57.464Z,18.18
2018-06-28T05:43:57.465Z,18.25
2018-06-28T05:44:57.470Z,18.23
2018-06-28T05:45:57.471Z,18.37
2018-06-28T05:46:57.480Z,18.25
2018-06-28T05:47:57.478Z,18.19
2018-06-28T05:48:57.480Z,18.15
2018-06-28T05:49:57.484Z,18.20
2018-06-28T05:50:57.483Z,18.16
2018-06-28T05:51:57.492Z,18.22
2018-06-28T05:52:57.494Z,18.16
2018-06-28T05:53:57.503Z,18.15
2018-06-28T05:54:57.502Z,18.11
2018-06-28T05:55:57.506Z,18.05
2018-06-28T05:56:57.509Z,18.11
2018-06-28T05:57:57.512Z,18.10
2018-06-28T05:58:57.516Z,18.08
2018-06-28T05:59:57.519Z,18.10
2018-06-28T06:00:57.524Z,18.15
2018-06-28T06:01:57.525Z,18.11
2018-06-28T06:02:57.530Z,18.15
2018-06-28T06:03:57.536Z,18.33
2018-06-28T06:04:57.536Z,18.28
2018-06-28T06:05:57.568Z,18.29
2018-06-28T06:06:57.542Z,18.38
2018-06-28T06:07:57.550Z,18.45
2018-06-28T06:08:57.549Z,18.53
2018-06-28T06:09:57.555Z,18.41
2018-06-28T06:10:57.550Z,18.44
2018-06-28T06:11:57.567Z,18.56
2018-06-28T06:12:57.571Z,18.62
2018-06-28T06:13:57.563Z,18.59
2018-06-28T06:14:57.570Z,18.53
2018-06-28T06:15:57.578Z,18.63
2018-06-28T06:16:57.583Z,18.75
2018-06-28T06:17:57.582Z,18.81
2018-06-28T06:18:57.589Z,18.83
2018-06-28T06:19:57.590Z,18.95
2018-06-28T06:20:57.593Z,18.90
2018-06-28T06:21:57.601Z,18.86
2018-06-28T06:22:57.600Z,18.84
2018-06-28T06:23:57.609Z,18.93
2018-06-28T06:24:57.610Z,18.96
2018-06-28T06:25:57.613Z,18.93
2018-06-28T06:26:57.617Z,18.96
2018-06-28T06:27:57.620Z,18.92
2018-06-28T06:28:57.624Z,18.86
2018-06-28T06:29:57.628Z,18.83
2018-06-28T06:30:57.632Z,18.84
2018-06-28T06:31:57.636Z,18.81
2018-06-28T06:32:57.687Z,18.71
2018-06-28T06:33:57.646Z,18.62
2018-06-28T06:34:57.646Z,18.53
2018-06-28T06:35:57.653Z,18.49
2018-06-28T06:36:57.653Z,18.55
2018-06-28T06:37:57.656Z,18.65
2018-06-28T06:38:57.663Z,18.62
2018-06-28T06:39:57.673Z,18.63
2018-06-28T06:40:57.669Z,18.60
2018-06-28T06:41:57.671Z,18.63
2018-06-28T06:42:57.679Z,18.75
2018-06-28T06:43:57.680Z,18.81
2018-06-28T06:44:57.683Z,18.84
2018-06-28T06:45:57.688Z,18.80
2018-06-28T06:46:57.687Z,18.78
2018-06-28T06:47:57.697Z,18.88
2018-06-28T06:48:57.701Z,18.99
2018-06-28T06:49:57.707Z,18.95
2018-06-28T06:50:57.708Z,19.07
2018-06-28T06:51:57.712Z,19.12
2018-06-28T06:52:57.714Z,19.30
2018-06-28T06:53:57.719Z,19.39
2018-06-28T06:54:57.715Z,19.45
2018-06-28T06:55:57.727Z,19.55
2018-06-28T06:56:57.732Z,19.52
2018-06-28T06:57:57.735Z,19.63
2018-06-28T06:58:57.740Z,19.64
2018-06-28T06:59:57.744Z,19.70
2018-06-28T07:00:57.747Z,19.74
2018-06-28T07:01:57.749Z,19.79
2018-06-28T07:02:57.758Z,19.84
2018-06-28T07:03:57.762Z,19.91
2018-06-28T07:04:57.760Z,19.96
2018-06-28T07:05:57.766Z,19.88
2018-06-28T07:06:57.772Z,19.92
2018-06-28T07:07:57.780Z,19.81
2018-06-28T07:08:57.787Z,19.81
2018-06-28T07:09:57.782Z,19.85
2018-06-28T07:10:57.790Z,20.00
2018-06-28T07:11:57.791Z,20.02
2018-06-28T07:12:57.796Z,20.09
2018-06-28T07:13:57.803Z,20.06
2018-06-28T07:14:57.805Z,20.13
2018-06-28T07:15:57.813Z,20.22
2018-06-28T07:16:57.817Z,20.32
2018-06-28T07:17:57.819Z,20.31
2018-06-28T07:18:57.829Z,20.31
2018-06-28T07:19:57.832Z,20.40
2018-06-28T07:20:57.833Z,20.44
2018-06-28T07:21:57.837Z,20.56
2018-06-28T07:22:57.894Z,20.58
2018-06-28T07:23:57.848Z,20.56
2018-06-28T07:24:57.854Z,20.60
2018-06-28T07:25:57.858Z,20.63
2018-06-28T07:26:57.860Z,20.67
2018-06-28T07:27:57.867Z,20.77
2018-06-28T07:28:57.873Z,20.75
2018-06-28T07:29:57.881Z,20.59
2018-06-28T07:30:57.886Z,20.47
2018-06-28T07:31:57.894Z,20.60
2018-06-28T07:32:57.902Z,20.78
2018-06-28T07:33:57.909Z,20.78
2018-06-28T07:34:57.900Z,20.81
2018-06-28T07:35:57.934Z,20.78
2018-06-28T07:36:57.908Z,20.92
2018-06-28T07:37:57.925Z,20.95
2018-06-28T07:38:57.924Z,21.03
2018-06-28T07:39:57.925Z,20.92
2018-06-28T07:40:57.933Z,20.97
2018-06-28T07:41:57.939Z,20.95
2018-06-28T07:42:57.945Z,20.88
2018-06-28T07:43:57.949Z,20.88
2018-06-28T07:44:57.962Z,20.95
2018-06-28T07:45:57.959Z,20.92
2018-06-28T07:46:58.030Z,21.02
2018-06-28T07:47:57.975Z,21.06
2018-06-28T07:48:57.987Z,21.06
2018-06-28T07:49:57.979Z,21.09
2018-06-28T07:50:57.985Z,21.17
2018-06-28T07:51:57.992Z,21.09
2018-06-28T07:52:57.997Z,21.17
2018-06-28T07:53:58.002Z,21.17
2018-06-28T07:54:58.006Z,21.29
2018-06-28T07:55:58.013Z,21.37
2018-06-28T07:56:58.015Z,21.30
2018-06-28T07:57:58.025Z,21.39
2018-06-28T07:58:58.023Z,21.46
2018-06-28T07:59:58.035Z,21.48
2018-06-28T08:00:58.032Z,21.51
2018-06-28T08:01:58.041Z,21.60
2018-06-28T08:02:58.043Z,21.61
2018-06-28T08:03:58.055Z,21.67
2018-06-28T08:04:58.055Z,21.67
2018-06-28T08:05:58.062Z,21.61
2018-06-28T08:06:58.072Z,21.64
2018-06-28T08:07:58.076Z,21.70
2018-06-28T08:08:58.077Z,21.67
2018-06-28T08:09:58.088Z,21.75
2018-06-28T08:10:58.091Z,21.67
2018-06-28T08:11:58.093Z,21.82
2018-06-28T08:12:58.102Z,21.95
2018-06-28T08:13:58.104Z,21.91
2018-06-28T08:14:58.111Z,21.99
2018-06-28T08:15:58.118Z,22.04
2018-06-28T08:16:58.120Z,21.98
2018-06-28T08:17:58.129Z,21.99
2018-06-28T08:18:58.132Z,22.04
2018-06-28T08:19:58.138Z,22.04
2018-06-28T08:20:58.143Z,22.22
2018-06-28T08:21:58.149Z,22.14
2018-06-28T08:22:58.158Z,22.15
2018-06-28T08:23:58.161Z,22.15
2018-06-28T08:24:58.165Z,22.17
2018-06-28T08:25:58.174Z,22.23
2018-06-28T08:26:58.187Z,22.32
2018-06-28T08:27:58.184Z,22.36
2018-06-28T08:28:58.193Z,22.38
2018-06-28T08:29:58.203Z,22.35
2018-06-28T08:30:58.198Z,22.29
2018-06-28T08:31:58.200Z,22.23
2018-06-28T08:32:58.213Z,22.23
2018-06-28T08:33:58.213Z,22.13
2018-06-28T08:34:58.219Z,22.26
2018-06-28T08:35:58.335Z,22.29
2018-06-28T08:36:58.237Z,22.38
2018-06-28T08:37:58.237Z,22.45
2018-06-28T08:38:58.252Z,22.51
2018-06-28T08:39:58.253Z,22.51
2018-06-28T08:40:58.263Z,22.76
2018-06-28T08:41:58.265Z,22.68
2018-06-28T08:42:58.273Z,22.76
2018-06-28T08:43:58.274Z,22.75
2018-06-28T08:44:58.279Z,22.65
2018-06-28T08:45:58.288Z,22.53
2018-06-28T08:46:58.300Z,22.54
2018-06-28T08:47:58.301Z,22.60
2018-06-28T08:48:58.370Z,22.65
2018-06-28T08:49:58.313Z,22.81
2018-06-28T08:50:58.317Z,22.81
2018-06-28T08:51:58.327Z,22.88
2018-06-28T08:52:58.337Z,23.06
2018-06-28T08:53:58.347Z,23.09
2018-06-28T08:54:58.341Z,23.10
2018-06-28T08:55:58.349Z,23.05
2018-06-28T08:56:58.361Z,23.05
2018-06-28T08:57:58.423Z,22.94
2018-06-28T08:58:58.374Z,22.94
2018-06-28T08:59:58.375Z,22.90
2018-06-28T09:00:58.386Z,22.93
2018-06-28T09:01:58.395Z,22.91
2018-06-28T09:02:58.400Z,22.96
2018-06-28T09:03:58.405Z,23.12
2018-06-28T09:04:58.416Z,23.13
2018-06-28T09:05:58.424Z,23.24
2018-06-28T09:06:58.427Z,23.17
2018-06-28T09:07:58.440Z,23.18
2018-06-28T09:08:58.440Z,23.23
2018-06-28T09:09:58.447Z,23.02
2018-06-28T09:10:58.459Z,23.10
2018-06-28T09:11:58.466Z,23.13
2018-06-28T09:12:58.471Z,23.20
2018-06-28T09:13:58.478Z,23.40
2018-06-28T09:14:58.487Z,23.28
2018-06-28T09:15:58.490Z,23.40
2018-06-28T09:16:58.503Z,23.46
2018-06-28T09:17:58.506Z,23.41
2018-06-28T09:18:58.511Z,23.27
2018-06-28T09:19:58.516Z,23.27
2018-06-28T09:20:58.529Z,23.24
2018-06-28T09:21:58.537Z,23.36
2018-06-28T09:22:58.555Z,23.34
2018-06-28T09:23:58.547Z,23.39
2018-06-28T09:24:58.558Z,23.51
2018-06-28T09:25:58.565Z,23.58
2018-06-28T09:26:58.571Z,23.55
2018-06-28T09:27:58.580Z,23.55
2018-06-28T09:28:58.589Z,23.56
2018-06-28T09:29:58.596Z,23.65
2018-06-28T09:30:58.600Z,23.65
2018-06-28T09:31:58.610Z,23.61
2018-06-28T09:32:58.612Z,23.71
2018-06-28T09:33:58.621Z,23.62
2018-06-28T09:34:58.627Z,23.66
2018-06-28T09:35:58.639Z,23.65
2018-06-28T09:36:58.645Z,23.66
2018-06-28T09:37:58.650Z,23.80
2018-06-28T09:38:58.658Z,23.91
2018-06-28T09:39:58.667Z,23.88
2018-06-28T09:40:58.670Z,23.87
2018-06-28T09:41:58.678Z,23.80
2018-06-28T09:42:58.690Z,23.73
2018-06-28T09:43:58.697Z,23.73
2018-06-28T09:44:58.698Z,23.86
2018-06-28T09:45:58.708Z,23.87
2018-06-28T09:46:58.719Z,23.92
2018-06-28T09:47:58.768Z,23.91
2018-06-28T09:48:58.726Z,23.88
2018-06-28T09:49:58.741Z,23.93
2018-06-28T09:50:58.749Z,23.95
2018-06-28T09:51:58.755Z,24.11
2018-06-28T09:52:58.761Z,24.18
2018-06-28T09:53:58.769Z,24.36
2018-06-28T09:54:58.779Z,24.33
2018-06-28T09:55:58.797Z,24.39
2018-06-28T09:56:58.793Z,24.60
2018-06-28T09:57:58.798Z,24.78
2018-06-28T09:58:58.809Z,24.92
2018-06-28T09:59:58.818Z,25.01
2018-06-28T10:00:58.821Z,25.04
2018-06-28T10:01:58.826Z,24.89
2018-06-28T10:02:58.838Z,24.80
2018-06-28T10:03:58.846Z,24.74
2018-06-28T10:04:58.910Z,24.65
2018-06-28T10:05:58.861Z,24.61
2018-06-28T10:06:58.956Z,24.53
2018-06-28T10:07:58.876Z,24.55
2018-06-28T10:08:58.884Z,24.57
2018-06-28T10:09:58.891Z,24.61
2018-06-28T10:10:58.900Z,24.66
2018-06-28T10:11:58.910Z,24.86
2018-06-28T10:12:58.915Z,24.98
2018-06-28T10:13:58.918Z,25.13
2018-06-28T10:14:58.928Z,25.03
2018-06-28T10:15:58.935Z,25.04
2018-06-28T10:16:58.941Z,25.06
2018-06-28T10:17:58.973Z,24.98
2018-06-28T10:18:58.963Z,24.88
2018-06-28T10:19:58.972Z,24.93
2018-06-28T10:20:58.979Z,24.89
2018-06-28T10:21:58.986Z,24.88
2018-06-28T10:22:58.996Z,24.80
2018-06-28T10:23:59.000Z,24.70
2018-06-28T10:24:59.076Z,24.76
2018-06-28T10:25:59.014Z,24.76
2018-06-28T10:26:59.031Z,24.78
2018-06-28T10:27:59.041Z,24.78
2018-06-28T10:28:59.040Z,24.86
2018-06-28T10:29:59.052Z,25.08
2018-06-28T10:30:59.059Z,25.31
2018-06-28T10:31:59.060Z,25.32
2018-06-28T10:32:59.077Z,25.53
2018-06-28T10:33:59.084Z,25.59
2018-06-28T10:34:59.089Z,25.65
2018-06-28T10:35:59.099Z,25.58
2018-06-28T10:36:59.106Z,25.47
2018-06-28T10:37:59.115Z,25.69
2018-06-28T10:38:59.123Z,25.68
2018-06-28T10:39:59.132Z,25.65
2018-06-28T10:40:59.163Z,25.54
2018-06-28T10:41:59.148Z,25.50
2018-06-28T10:42:59.156Z,25.53
2018-06-28T10:43:59.164Z,25.62
2018-06-28T10:44:59.175Z,25.65
2018-06-28T10:45:59.182Z,25.75
2018-06-28T10:46:59.191Z,25.85
2018-06-28T10:47:59.212Z,25.93
2018-06-28T10:48:59.206Z,25.85
2018-06-28T10:49:59.216Z,25.95
2018-06-28T10:50:59.224Z,25.83
2018-06-28T10:51:59.234Z,25.85
2018-06-28T10:52:59.235Z,25.84
2018-06-28T10:53:59.255Z,25.68
2018-06-28T10:54:59.258Z,25.58
2018-06-28T10:55:59.267Z,25.48
2018-06-28T10:56:59.278Z,25.48
2018-06-28T10:57:59.286Z,25.48
2018-06-28T10:58:59.291Z,25.51
2018-06-28T10:59:59.306Z,25.60
2018-06-28T11:00:59.310Z,25.54
2018-06-28T11:01:59.325Z,25.69
2018-06-28T11:02:59.329Z,25.91
2018-06-28T11:03:59.332Z,25.99
2018-06-28T11:04:59.339Z,25.98
2018-06-28T11:05:59.355Z,25.90
2018-06-28T11:06:59.364Z,25.83
2018-06-28T11:07:59.373Z,25.93
2018-06-28T11:08:59.376Z,26.03
2018-06-28T11:09:59.388Z,25.95
2018-06-28T11:10:59.399Z,25.91
2018-06-28T11:11:59.409Z,25.90
2018-06-28T11:12:59.416Z,25.77
2018-06-28T11:13:59.426Z,25.72
2018-06-28T11:14:59.435Z,25.77
2018-06-28T11:15:59.452Z,25.70
2018-06-28T11:16:59.451Z,25.59
2018-06-28T11:17:59.460Z,25.70
2018-06-28T11:18:59.468Z,25.59
2018-06-28T11:19:59.479Z,25.54
2018-06-28T11:20:59.488Z,25.63
2018-06-28T11:21:59.495Z,25.68
2018-06-28T11:22:59.502Z,25.68
2018-06-28T11:23:59.510Z,25.59
2018-06-28T11:24:59.521Z,25.54
2018-06-28T11:25:59.532Z,25.44
2018-06-28T11:26:59.531Z,25.32
2018-06-28T11:27:59.549Z,25.29
2018-06-28T11:28:59.553Z,25.28
2018-06-28T11:29:59.566Z,24.98
2018-06-28T11:30:59.572Z,24.80
2018-06-28T11:31:59.581Z,24.65
2018-06-28T11:32:59.589Z,24.58
2018-06-28T11:33:59.612Z,24.50
2018-06-28T11:34:59.604Z,24.63
2018-06-28T11:35:59.611Z,24.61
2018-06-28T11:36:59.685Z,24.47
2018-06-28T11:37:59.628Z,24.36
2018-06-28T11:38:59.635Z,24.24
2018-06-28T11:39:59.645Z,24.17
2018-06-28T11:40:59.651Z,24.17
2018-06-28T11:41:59.674Z,24.17
2018-06-28T11:42:59.666Z,24.14
2018-06-28T11:43:59.673Z,24.26
2018-06-28T11:44:59.681Z,24.30
2018-06-28T11:45:59.690Z,24.39
2018-06-28T11:46:59.704Z,24.26
2018-06-28T11:47:59.708Z,24.28
2018-06-28T11:48:59.713Z,24.28
2018-06-28T11:49:59.720Z,24.35
2018-06-28T11:50:59.724Z,24.11
2018-06-28T11:51:59.737Z,23.96
2018-06-28T11:52:59.745Z,23.87
2018-06-28T11:53:59.749Z,23.74
2018-06-28T11:54:59.757Z,23.81
2018-06-28T11:55:59.776Z,23.74
2018-06-28T11:56:59.766Z,23.91
2018-06-28T11:57:59.780Z,23.76
2018-06-28T11:58:59.787Z,23.73
2018-06-28T11:59:59.794Z,23.71
2018-06-28T12:00:59.802Z,23.80
2018-06-28T12:01:59.809Z,23.81
2018-06-28T12:02:59.817Z,23.84
2018-06-28T12:03:59.821Z,23.78
2018-06-28T12:04:59.828Z,23.83
2018-06-28T12:05:59.834Z,23.78
2018-06-28T12:06:59.845Z,23.77
2018-06-28T12:07:59.852Z,23.78
2018-06-28T12:08:59.857Z,23.77
2018-06-28T12:09:59.865Z,23.71
2018-06-28T12:10:59.871Z,23.77
2018-06-28T12:11:59.876Z,23.73
2018-06-28T12:12:59.887Z,23.87
2018-06-28T12:13:59.891Z,23.87
2018-06-28T12:14:59.901Z,23.87
2018-06-28T12:15:59.910Z,23.81
2018-06-28T12:16:59.911Z,23.88
2018-06-28T12:17:59.920Z,23.88
2018-06-28T12:18:59.937Z,23.92
2018-06-28T12:19:59.933Z,23.83
2018-06-28T12:20:59.940Z,23.78
2018-06-28T12:21:59.948Z,23.74
2018-06-28T12:22:59.956Z,23.87
2018-06-28T12:23:59.967Z,23.77
2018-06-28T12:24:59.963Z,23.73
2018-06-28T12:25:59.976Z,23.77
2018-06-28T12:26:59.977Z,23.71
2018-06-28T12:27:59.991Z,23.73
2018-06-28T12:29:00.007Z,23.74
2018-06-28T12:29:59.998Z,23.66
2018-06-28T12:31:00.021Z,23.62
2018-06-28T12:32:00.019Z,23.65
2018-06-28T12:33:00.022Z,23.59
2018-06-28T12:34:00.029Z,23.56
2018-06-28T12:35:00.037Z,23.51
2018-06-28T12:36:00.043Z,23.50
2018-06-28T12:37:00.046Z,23.31
2018-06-28T12:38:00.060Z,23.39
2018-06-28T12:39:00.059Z,23.39
2018-06-28T12:40:00.068Z,23.25
2018-06-28T12:41:00.077Z,23.34
2018-06-28T12:42:00.081Z,23.17
2018-06-28T12:43:00.092Z,23.20
2018-06-28T12:44:00.096Z,23.15
2018-06-28T12:45:00.111Z,23.18
2018-06-28T12:46:00.110Z,23.03
2018-06-28T12:47:00.117Z,23.09
2018-06-28T12:48:00.126Z,23.00
2018-06-28T12:49:00.130Z,23.08
2018-06-28T12:50:00.139Z,23.13
2018-06-28T12:51:00.146Z,23.08
2018-06-28T12:52:00.153Z,23.09
2018-06-28T12:53:00.155Z,23.09